createdAt,value
2023-03-03T00:01:16.333Z,102120.31
2023-03-03T00:05:19.460Z,102128.78
2023-03-03T00:09:22.543Z,102118.75
2023-03-03T00:13:28.540Z,102125.50
2023-03-03T00:17:33.997Z,102114.19
2023-03-03T00:21:42.942Z,102120.50
2023-03-03T00:25:47.585Z,102117.81
2023-03-03T00:29:54.384Z,102127.53
2023-03-03T00:34:05.328Z,102131.81
2023-03-03T00:38:16.911Z,102122.78
2023-03-03T00:42:20.901Z,102121.78
2023-03-03T00:46:25.057Z,102120.94
2023-03-03T00:50:32.818Z,102122.00
2023-03-03T00:54:36.655Z,102118.91
2023-03-03T00:58:39.623Z,102115.16
2023-03-03T01:02:46.529Z,102114.84
2023-03-03T01:06:51.629Z,102118.69
2023-03-03T01:10:57.121Z,102111.47
2023-03-03T01:15:00.565Z,102120.53
2023-03-03T01:19:03.559Z,102111.31
2023-03-03T01:23:08.455Z,102108.31
2023-03-03T01:27:11.406Z,102111.16
2023-03-03T01:31:14.772Z,102110.94
2023-03-03T01:35:18.315Z,102096.91
2023-03-03T01:39:23.074Z,102108.97
2023-03-03T01:43:27.949Z,102104.72
2023-03-03T01:47:34.783Z,102114.78
2023-03-03T01:51:44.081Z,102116.06
2023-03-03T01:55:53.163Z,102118.28
2023-03-03T01:59:58.467Z,102123.81
2023-03-03T02:04:02.695Z,102111.94
2023-03-03T02:08:07.358Z,102117.44
2023-03-03T02:12:17.631Z,102111.09
2023-03-03T02:16:22.503Z,102123.81
2023-03-03T02:20:36.882Z,102118.69
2023-03-03T02:24:46.995Z,102126.44
2023-03-03T02:28:52.696Z,102108.03
2023-03-03T02:32:55.898Z,102107.72
2023-03-03T02:36:59.449Z,102107.28
2023-03-03T02:41:09.223Z,102119.44
2023-03-03T02:45:14.505Z,102111.88
2023-03-03T02:49:21.816Z,102116.09
2023-03-03T02:53:24.928Z,102104.19
2023-03-03T02:57:28.860Z,102126.66
2023-03-03T03:01:37.151Z,102115.94
2023-03-03T03:05:42.841Z,102102.34
2023-03-03T03:09:46.008Z,102101.91
2023-03-03T03:13:50.193Z,102109.50
2023-03-03T03:17:54.725Z,102109.88
2023-03-03T03:21:58.831Z,102104.38
2023-03-03T03:26:03.092Z,102100.00
2023-03-03T03:30:07.271Z,102108.06
2023-03-03T03:34:12.894Z,102116.63
2023-03-03T03:38:16.145Z,102114.56
2023-03-03T03:42:19.628Z,102112.88
2023-03-03T03:46:23.636Z,102116.56
2023-03-03T03:50:28.599Z,102125.63
2023-03-03T03:54:31.983Z,102115.78
2023-03-03T03:58:35.152Z,102120.00
2023-03-03T04:02:42.567Z,102114.72
2023-03-03T04:06:51.278Z,102111.44
2023-03-03T04:10:54.167Z,102116.41
2023-03-03T04:14:58.895Z,102118.78
2023-03-03T04:19:03.521Z,102115.72
2023-03-03T04:23:10.751Z,102114.31
2023-03-03T04:27:15.368Z,102115.72
2023-03-03T04:31:20.474Z,102123.94
2023-03-03T04:35:25.082Z,102117.56
2023-03-03T04:39:30.824Z,102112.56
2023-03-03T04:43:34.998Z,102118.78
2023-03-03T04:47:39.592Z,102125.38
2023-03-03T04:51:43.411Z,102110.19
2023-03-03T04:55:51.682Z,102117.09
2023-03-03T04:59:55.403Z,102119.78
2023-03-03T05:03:58.631Z,102126.59
2023-03-03T05:08:01.844Z,102120.41
2023-03-03T05:12:06.834Z,102131.69
2023-03-03T05:16:11.920Z,102130.00
2023-03-03T05:20:15.298Z,102121.78
2023-03-03T05:24:18.536Z,102117.53
2023-03-03T05:28:22.827Z,102122.00
2023-03-03T05:32:26.039Z,102123.38
2023-03-03T05:36:29.175Z,102129.47
2023-03-03T05:40:32.303Z,102130.91
2023-03-03T05:44:38.724Z,102138.13
2023-03-03T05:48:43.915Z,102136.44
2023-03-03T05:52:56.476Z,102139.13
2023-03-03T05:57:08.267Z,102135.78
2023-03-03T06:01:12.826Z,102135.88
2023-03-03T06:05:15.832Z,102136.34
2023-03-03T06:09:19.166Z,102149.53
2023-03-03T06:13:30.291Z,102142.47
2023-03-03T06:17:50.428Z,102148.31
2023-03-03T06:22:05.239Z,102154.66
2023-03-03T06:26:08.251Z,102163.72
2023-03-03T06:30:12.923Z,102154.91
2023-03-03T06:34:17.397Z,102157.75
2023-03-03T06:38:21.695Z,102157.75
2023-03-03T06:42:24.886Z,102164.22
2023-03-03T06:46:28.060Z,102169.59
2023-03-03T06:50:32.588Z,102181.94
2023-03-03T06:54:37.165Z,102169.91
2023-03-03T06:58:40.763Z,102178.97
2023-03-03T07:02:44.086Z,102179.34
2023-03-03T07:06:48.465Z,102183.63
2023-03-03T07:10:52.879Z,102184.72
2023-03-03T07:15:02.582Z,102194.31
2023-03-03T07:19:18.094Z,102196.84
2023-03-03T07:23:35.536Z,102201.78
2023-03-03T07:27:38.687Z,102200.22
2023-03-03T07:31:45.541Z,102210.66
2023-03-03T07:35:48.878Z,102210.75
2023-03-03T07:39:53.375Z,102225.09
2023-03-03T07:44:05.971Z,102232.03
2023-03-03T07:48:20.322Z,102240.22
2023-03-03T07:52:29.577Z,102247.13
2023-03-03T07:56:36.999Z,102246.53
2023-03-03T08:01:27.993Z,102249.06
2023-03-03T08:05:36.574Z,102247.75
2023-03-03T08:09:51.036Z,102253.06
2023-03-03T08:13:57.441Z,102259.69
2023-03-03T08:18:02.968Z,102261.28
2023-03-03T08:22:16.151Z,102262.41
2023-03-03T08:26:19.704Z,102266.19
2023-03-03T08:30:24.076Z,102265.06
2023-03-03T08:34:34.958Z,102271.63
2023-03-03T08:38:42.236Z,102265.66
2023-03-03T08:42:45.860Z,102262.97
2023-03-03T08:46:51.575Z,102261.59
2023-03-03T08:50:55.198Z,102263.53
2023-03-03T08:54:58.219Z,102258.84
2023-03-03T08:59:02.894Z,102267.69
2023-03-03T09:03:08.688Z,102259.22
2023-03-03T09:07:11.533Z,102261.75
2023-03-03T09:11:15.697Z,102267.13
2023-03-03T09:15:25.063Z,102269.56
2023-03-03T09:19:32.433Z,102269.16
2023-03-03T09:23:37.268Z,102270.00
2023-03-03T09:27:41.674Z,102275.31
2023-03-03T09:31:46.928Z,102282.91
2023-03-03T09:35:55.066Z,102275.53
2023-03-03T09:39:59.075Z,102278.38
2023-03-03T09:44:19.709Z,102278.00
2023-03-03T09:48:40.887Z,102283.97
2023-03-03T09:52:57.683Z,102291.09
2023-03-03T09:57:09.280Z,102291.69
2023-03-03T10:01:36.526Z,102296.28
2023-03-03T10:05:48.699Z,102289.41
2023-03-03T10:10:09.002Z,102296.53
2023-03-03T10:14:32.627Z,102294.06
2023-03-03T10:18:43.807Z,102294.94
2023-03-03T10:22:53.172Z,102294.66
2023-03-03T10:27:14.450Z,102294.06
2023-03-03T10:31:32.756Z,102305.69
2023-03-03T10:36:08.425Z,102304.06
2023-03-03T10:40:21.265Z,102300.56
2023-03-03T10:44:49.938Z,102304.94
2023-03-03T10:49:11.771Z,102307.16
2023-03-03T10:53:23.974Z,102302.31
2023-03-03T10:57:36.521Z,102291.84
2023-03-03T11:01:50.618Z,102293.53
2023-03-03T11:06:00.030Z,102296.25
2023-03-03T11:10:15.605Z,102288.47
2023-03-03T11:14:28.720Z,102282.06
2023-03-03T11:18:51.956Z,102275.75
2023-03-03T11:23:03.578Z,102266.22
2023-03-03T11:27:50.754Z,102275.00
2023-03-03T11:31:58.566Z,102268.22
2023-03-03T11:36:11.889Z,102266.09
2023-03-03T11:40:20.799Z,102262.63
2023-03-03T11:44:30.530Z,102257.97
2023-03-03T11:48:39.214Z,102262.13
2023-03-03T11:52:49.885Z,102254.72
2023-03-03T11:56:59.309Z,102254.78
2023-03-03T12:01:11.463Z,102253.63
2023-03-03T12:05:27.216Z,102249.75
2023-03-03T12:09:45.246Z,102233.41
2023-03-03T12:13:57.693Z,102236.63
2023-03-03T12:18:36.109Z,102229.78
2023-03-03T12:23:04.541Z,102223.88
2023-03-03T12:27:20.317Z,102224.81
2023-03-03T12:31:35.113Z,102219.41
2023-03-03T12:35:45.194Z,102211.75
2023-03-03T12:39:59.455Z,102203.81
2023-03-03T12:44:09.423Z,102203.00
2023-03-03T12:48:18.036Z,102202.91
2023-03-03T12:52:29.564Z,102194.94
2023-03-03T12:56:38.916Z,102185.31
2023-03-03T13:00:54.953Z,102195.78
2023-03-03T13:05:06.015Z,102193.66
2023-03-03T13:09:21.427Z,102173.19
2023-03-03T13:13:30.596Z,102171.91
2023-03-03T13:17:40.340Z,102168.56
2023-03-03T13:21:51.423Z,102168.72
2023-03-03T13:25:59.100Z,102158.34
2023-03-03T13:30:04.996Z,102167.50
2023-03-03T13:34:19.025Z,102166.97
2023-03-03T13:38:25.076Z,102167.44
2023-03-03T13:42:35.149Z,102164.38
2023-03-03T13:46:43.345Z,102146.34
2023-03-03T13:50:54.716Z,102151.31
2023-03-03T13:55:15.001Z,102158.13
2023-03-03T13:59:29.079Z,102151.28
2023-03-03T14:03:49.965Z,102148.84
2023-03-03T14:08:00.036Z,102151.81
2023-03-03T14:12:35.489Z,102149.09
2023-03-03T14:16:52.854Z,102152.75
2023-03-03T14:20:59.212Z,102148.41
2023-03-03T14:25:07.057Z,102142.03
2023-03-03T14:29:21.518Z,102131.88
2023-03-03T14:33:31.482Z,102135.06
2023-03-03T14:37:45.788Z,102136.13
2023-03-03T14:41:52.438Z,102132.22
2023-03-03T14:45:56.529Z,102127.69
2023-03-03T14:50:00.717Z,102119.16
2023-03-03T14:54:15.075Z,102111.03
2023-03-03T14:58:32.621Z,102117.97
2023-03-03T15:02:42.235Z,102119.75
2023-03-03T15:06:47.456Z,102124.97
2023-03-03T15:10:50.302Z,102123.97
2023-03-03T15:15:06.504Z,102115.06
2023-03-03T15:19:38.521Z,102113.50
2023-03-03T15:23:56.015Z,102110.59
2023-03-03T15:28:26.354Z,102106.31
2023-03-03T15:32:37.127Z,102106.44
2023-03-03T15:36:48.680Z,102101.13
2023-03-03T15:41:00.770Z,102097.53
2023-03-03T15:45:14.874Z,102091.69
2023-03-03T15:49:36.995Z,102094.00
2023-03-03T15:54:17.229Z,102084.59
2023-03-03T15:58:39.848Z,102083.91
2023-03-03T16:02:51.776Z,102077.75
2023-03-03T16:07:04.084Z,102079.19
2023-03-03T16:11:13.627Z,102081.03
2023-03-03T16:15:28.550Z,102084.50
2023-03-03T16:19:39.576Z,102081.50
2023-03-03T16:23:50.794Z,102083.16
2023-03-03T16:28:16.206Z,102085.31
2023-03-03T16:32:25.453Z,102080.56
2023-03-03T16:36:38.114Z,102082.97
2023-03-03T16:40:51.330Z,102085.88
2023-03-03T16:45:21.095Z,102084.50
2023-03-03T16:49:45.952Z,102083.66
2023-03-03T16:54:02.594Z,102073.94
2023-03-03T16:58:23.513Z,102085.78
2023-03-03T17:02:59.846Z,102087.66
2023-03-03T17:07:13.850Z,102096.16
2023-03-03T17:11:27.701Z,102091.47
2023-03-03T17:15:40.693Z,102097.22
2023-03-03T17:20:04.774Z,102095.00
2023-03-03T17:24:25.864Z,102096.03
2023-03-03T17:28:50.068Z,102099.78
2023-03-03T17:33:15.095Z,102107.72
2023-03-03T17:37:31.423Z,102094.81
2023-03-03T17:41:45.930Z,102100.03
2023-03-03T17:45:55.300Z,102103.88
2023-03-03T17:50:15.323Z,102114.56
2023-03-03T17:54:47.254Z,102112.59
2023-03-03T17:59:27.686Z,102118.38
2023-03-03T18:03:49.537Z,102112.16
2023-03-03T18:08:07.315Z,102119.94
2023-03-03T18:12:23.068Z,102124.72
2023-03-03T18:16:40.565Z,102129.81
2023-03-03T18:21:11.294Z,102123.25
2023-03-03T18:25:17.801Z,102130.72
2023-03-03T18:29:28.852Z,102124.81
2023-03-03T18:33:45.363Z,102123.97
2023-03-03T18:37:54.534Z,102127.72
2023-03-03T18:42:37.667Z,102128.56
2023-03-03T18:46:59.414Z,102135.81
2023-03-03T18:51:02.895Z,102133.66
2023-03-03T18:55:40.408Z,102139.75
2023-03-03T18:59:54.483Z,102138.03
2023-03-03T19:04:10.570Z,102137.38
2023-03-03T19:08:23.138Z,102148.38
2023-03-03T19:12:51.525Z,102154.81
2023-03-03T19:17:00.787Z,102161.44
2023-03-03T19:21:05.820Z,102159.00
2023-03-03T19:25:25.820Z,102164.72
2023-03-03T19:30:05.796Z,102151.94
2023-03-03T19:34:34.402Z,102150.63
2023-03-03T19:39:02.927Z,102157.88
2023-03-03T19:43:21.575Z,102162.28
2023-03-03T19:47:35.621Z,102155.84
2023-03-03T19:51:48.883Z,102161.94
2023-03-03T19:56:09.300Z,102158.72
2023-03-03T20:00:24.552Z,102167.69
2023-03-03T20:04:42.514Z,102171.25
2023-03-03T20:08:57.500Z,102175.13
2023-03-03T20:13:15.730Z,102174.97
2023-03-03T20:17:39.065Z,102171.72
2023-03-03T20:21:50.153Z,102164.19
2023-03-03T20:26:02.932Z,102166.38
2023-03-03T20:30:32.565Z,102162.66
2023-03-03T20:34:47.360Z,102164.19
2023-03-03T20:39:01.697Z,102184.06
2023-03-03T20:43:19.185Z,102172.44
2023-03-03T20:47:35.049Z,102173.13
2023-03-03T20:51:45.929Z,102167.53
2023-03-03T20:55:59.649Z,102168.06
2023-03-03T21:00:08.720Z,102164.50
2023-03-03T21:04:24.070Z,102169.22
2023-03-03T21:08:45.973Z,102170.06
2023-03-03T21:12:48.983Z,102175.47
2023-03-03T21:16:56.714Z,102173.78
2023-03-03T21:20:59.886Z,102172.75
2023-03-03T21:25:06.305Z,102174.63
2023-03-03T21:29:09.866Z,102175.81
2023-03-03T21:33:41.128Z,102168.75
2023-03-03T21:37:47.442Z,102172.97
2023-03-03T21:41:56.055Z,102161.50
2023-03-03T21:45:59.007Z,102165.91
2023-03-03T21:50:03.414Z,102158.84
2023-03-03T21:54:06.556Z,102156.47
2023-03-03T21:58:09.890Z,102145.66
2023-03-03T22:02:13.184Z,102142.97
2023-03-03T22:06:17.821Z,102142.97
2023-03-03T22:10:20.737Z,102140.78
2023-03-03T22:14:25.505Z,102145.47
2023-03-03T22:18:31.318Z,102141.09
2023-03-03T22:22:35.965Z,102141.94
2023-03-03T22:26:39.523Z,102143.78
2023-03-03T22:30:44.294Z,102147.16
2023-03-03T22:34:47.220Z,102149.00
2023-03-03T22:38:51.622Z,102141.97
2023-03-03T22:42:54.500Z,102154.28
2023-03-03T22:46:57.468Z,102146.19
2023-03-03T22:51:00.910Z,102145.19
2023-03-03T22:55:05.770Z,102141.13
2023-03-03T22:59:08.570Z,102140.31
2023-03-03T23:03:12.013Z,102149.44
2023-03-03T23:07:14.925Z,102151.63
2023-03-03T23:11:19.760Z,102144.03
2023-03-03T23:15:22.755Z,102147.56
2023-03-03T23:19:26.362Z,102151.09
2023-03-03T23:23:30.600Z,102143.66
2023-03-03T23:27:35.939Z,102145.00
2023-03-03T23:31:39.087Z,102149.78
2023-03-03T23:35:42.101Z,102139.69
2023-03-03T23:39:45.088Z,102142.56
2023-03-03T23:43:49.350Z,102140.03
2023-03-03T23:47:52.592Z,102152.13
2023-03-03T23:51:55.558Z,102156.22
2023-03-03T23:55:58.521Z,102150.97
